Time;durP1;ratioP1;P1;durP2;ratioP2;P2;SDS_P1;SDS_P2;PMS_P1;PMS_P2;Temp;Humidity;BMP_temperature;BMP_pressure;BME280_temperature;BME280_humidity;BME280_pressure;Samples;Min_cycle;Max_cycle;Signal;HPM_P1;HPM_P2
2023/12/15 00:00:21;;;;;;;5.17;4.50;;;;;;;6.39;100.00;97699.31;5074538;28;20205;-55
2023/12/15 00:02:47;;;;;;;4.67;4.27;;;;;;;6.51;100.00;97709.13;5074065;28;20293;-55
2023/12/15 00:05:15;;;;;;;5.07;4.37;;;;;;;6.55;100.00;97713.25;5075083;28;20222;-55
2023/12/15 00:07:42;;;;;;;5.30;4.40;;;;;;;6.46;100.00;97712.00;5076098;28;20308;-55
2023/12/15 00:10:09;;;;;;;4.57;4.27;;;;;;;6.38;100.00;97718.66;5075774;28;20297;-55
2023/12/15 00:12:35;;;;;;;4.83;4.43;;;;;;;6.47;100.00;97729.47;5076252;28;20282;-55
2023/12/15 00:15:04;;;;;;;4.87;4.43;;;;;;;6.35;100.00;97729.34;5074512;28;20206;-55
2023/12/15 00:17:31;;;;;;;4.80;4.40;;;;;;;6.34;100.00;97722.41;5073466;28;20207;-55
2023/12/15 00:19:59;;;;;;;4.37;3.97;;;;;;;6.30;100.00;97736.66;5073695;28;20285;-55
2023/12/15 00:22:27;;;;;;;4.23;3.83;;;;;;;6.32;100.00;97740.03;5073171;28;20228;-53
2023/12/15 00:24:54;;;;;;;4.10;3.80;;;;;;;6.36;100.00;97731.91;5073978;28;20233;-54
2023/12/15 00:27:20;;;;;;;3.60;3.30;;;;;;;6.27;100.00;97736.84;5074621;28;20206;-53
2023/12/15 00:29:47;;;;;;;3.67;3.37;;;;;;;6.22;100.00;97738.88;5074827;28;20205;-56
2023/12/15 00:32:13;;;;;;;3.97;3.67;;;;;;;6.21;100.00;97743.28;5075120;28;20198;-55
2023/12/15 00:34:40;;;;;;;4.40;3.40;;;;;;;6.16;100.00;97740.09;5077211;28;20195;-56
2023/12/15 00:37:06;;;;;;;3.80;3.50;;;;;;;6.08;100.00;97741.47;5076616;28;20328;-55
2023/12/15 00:39:38;;;;;;;3.37;3.03;;;;;;;6.06;100.00;97732.84;5079108;28;20278;-56
2023/12/15 00:42:05;;;;;;;3.50;3.10;;;;;;;5.99;100.00;97748.09;5076486;28;20277;-56
2023/12/15 00:44:33;;;;;;;3.33;3.10;;;;;;;5.94;100.00;97745.75;5074017;28;20689;-56
2023/12/15 00:47:00;;;;;;;3.37;3.10;;;;;;;5.92;100.00;97744.97;5073650;28;20207;-57
2023/12/15 00:49:27;;;;;;;3.00;2.80;;;;;;;5.95;100.00;97752.66;5071914;28;20221;-55
2023/12/15 00:51:56;;;;;;;3.07;2.87;;;;;;;5.90;100.00;97752.09;5073733;28;20221;-54
2023/12/15 00:54:23;;;;;;;2.70;2.57;;;;;;;5.87;100.00;97759.31;5073849;28;20229;-56
2023/12/15 00:56:53;;;;;;;3.13;2.90;;;;;;;5.91;100.00;97766.94;5073957;28;20336;-54
2023/12/15 00:59:20;;;;;;;3.20;2.90;;;;;;;5.86;100.00;97773.34;5072829;28;20203;-55
2023/12/15 01:01:46;;;;;;;2.80;2.60;;;;;;;5.81;100.00;97780.63;5074338;28;20658;-55
2023/12/15 01:04:13;;;;;;;3.37;3.07;;;;;;;5.87;100.00;97775.91;5073127;28;20206;-56
2023/12/15 01:06:39;;;;;;;2.90;2.70;;;;;;;5.81;100.00;97783.25;5073659;28;20198;-56
2023/12/15 01:09:06;;;;;;;2.90;2.70;;;;;;;5.77;100.00;97785.19;5072494;28;20723;-55
2023/12/15 01:11:32;;;;;;;2.60;2.50;;;;;;;5.79;100.00;97796.44;5073665;28;20298;-55
2023/12/15 01:14:01;;;;;;;2.60;2.40;;;;;;;5.75;100.00;97802.78;5072825;28;20195;-55
2023/12/15 01:16:28;;;;;;;3.20;3.00;;;;;;;5.73;100.00;97804.66;5072667;28;20206;-56
2023/12/15 01:18:57;;;;;;;2.90;2.70;;;;;;;5.73;100.00;97809.91;5072801;28;20635;-54
2023/12/15 01:21:23;;;;;;;3.07;2.80;;;;;;;5.78;100.00;97821.00;5073261;28;20195;-56
2023/12/15 01:23:50;;;;;;;2.83;2.60;;;;;;;5.78;100.00;97825.38;5073060;28;20211;-55
2023/12/15 01:26:18;;;;;;;2.60;2.40;;;;;;;5.91;100.00;97829.94;5073434;28;20233;-55
2023/12/15 01:28:45;;;;;;;3.10;2.90;;;;;;;5.90;100.00;97837.88;5072734;28;20221;-54
2023/12/15 01:31:13;;;;;;;3.00;2.80;;;;;;;5.93;100.00;97841.19;5073375;28;20202;-56
2023/12/15 01:33:40;;;;;;;2.77;2.57;;;;;;;5.89;100.00;97849.31;5072483;28;20260;-55
2023/12/15 01:36:07;;;;;;;2.83;2.57;;;;;;;5.87;100.00;97849.41;5073593;28;20295;-56
2023/12/15 01:38:34;;;;;;;2.67;2.47;;;;;;;5.82;100.00;97855.78;5074032;28;20297;-55
2023/12/15 01:41:00;;;;;;;3.13;2.93;;;;;;;5.84;100.00;97854.81;5075264;28;20233;-55
2023/12/15 01:43:27;;;;;;;2.70;2.57;;;;;;;5.81;100.00;97868.06;5081474;28;20195;-55
2023/12/15 01:45:53;;;;;;;2.87;2.67;;;;;;;5.76;100.00;97867.50;5094338;28;20312;-56
2023/12/15 01:48:23;;;;;;;3.00;2.80;;;;;;;5.69;100.00;97862.66;5094082;28;20222;-57
2023/12/15 01:50:49;;;;;;;3.00;2.70;;;;;;;5.66;100.00;97861.06;5081908;28;20238;-56
2023/12/15 01:53:16;;;;;;;2.97;2.77;;;;;;;5.76;100.00;97867.50;5073223;28;20208;-55
2023/12/15 01:55:43;;;;;;;3.07;2.77;;;;;;;5.71;100.00;97873.91;5072621;28;20195;-56
2023/12/15 01:58:10;;;;;;;2.90;2.70;;;;;;;5.67;100.00;97877.66;5072296;28;20325;-54
2023/12/15 02:00:37;;;;;;;2.67;2.47;;;;;;;5.62;100.00;97879.66;5071903;28;20212;-56
2023/12/15 02:03:03;;;;;;;3.03;2.83;;;;;;;5.55;100.00;97894.88;5073727;28;20333;-56
2023/12/15 02:05:31;;;;;;;2.70;2.50;;;;;;;5.56;100.00;97888.72;5073685;28;20218;-56
2023/12/15 02:07:59;;;;;;;2.77;2.57;;;;;;;5.54;100.00;97893.19;5072628;28;20198;-56
2023/12/15 02:10:25;;;;;;;2.53;2.40;;;;;;;5.58;100.00;97913.09;5072024;28;20202;-56
2023/12/15 02:12:56;;;;;;;3.20;2.90;;;;;;;5.58;100.00;97915.72;5071700;28;20212;-56
2023/12/15 02:15:22;;;;;;;2.97;2.77;;;;;;;5.50;100.00;97917.88;5071638;28;20206;-56
2023/12/15 02:17:51;;;;;;;2.90;2.70;;;;;;;5.62;100.00;97926.91;5071706;28;20194;-56
2023/12/15 02:20:18;;;;;;;3.37;2.77;;;;;;;5.65;100.00;97930.22;5070650;28;20199;-54
2023/12/15 02:22:47;;;;;;;2.77;2.57;;;;;;;5.65;100.00;97938.06;5072061;28;20297;-55
2023/12/15 02:25:14;;;;;;;2.93;2.73;;;;;;;5.65;100.00;97943.31;5071892;28;20215;-55
2023/12/15 02:27:41;;;;;;;3.17;2.87;;;;;;;5.60;100.00;97944.50;5071831;28;20293;-55
2023/12/15 02:30:08;;;;;;;2.67;2.47;;;;;;;5.56;100.00;97943.81;5072103;28;20546;-56
2023/12/15 02:32:35;;;;;;;2.67;2.47;;;;;;;5.58;100.00;97952.44;5071158;28;20203;-55
2023/12/15 02:35:01;;;;;;;2.90;2.70;;;;;;;5.56;100.00;97949.06;5071955;28;20550;-56
2023/12/15 02:37:28;;;;;;;2.97;2.67;;;;;;;5.68;100.00;97958.91;5071324;28;20631;-56
2023/12/15 02:39:56;;;;;;;3.17;2.97;;;;;;;5.64;100.00;97960.00;5073239;28;20629;-56
2023/12/15 02:42:23;;;;;;;3.00;2.80;;;;;;;5.65;100.00;97969.56;5072162;28;20199;-55
2023/12/15 02:44:49;;;;;;;3.50;3.20;;;;;;;5.61;100.00;97961.94;5071686;28;20241;-57
2023/12/15 02:47:16;;;;;;;3.27;3.00;;;;;;;5.53;100.00;97971.06;5071505;28;20212;-54
2023/12/15 02:49:42;;;;;;;3.17;2.90;;;;;;;5.58;100.00;97968.19;5071702;28;20199;-55
2023/12/15 02:52:09;;;;;;;3.20;3.00;;;;;;;5.57;100.00;97969.13;5071022;28;20218;-54
2023/12/15 02:54:36;;;;;;;3.30;3.03;;;;;;;5.56;100.00;97975.31;5071261;28;20210;-55
2023/12/15 02:57:04;;;;;;;2.73;2.57;;;;;;;5.55;100.00;97968.34;5071112;28;20666;-55
2023/12/15 02:59:30;;;;;;;3.20;3.00;;;;;;;5.57;100.00;97979.59;5071056;28;20217;-56
2023/12/15 03:01:57;;;;;;;3.67;3.30;;;;;;;5.61;100.00;97972.44;5070640;28;20202;-55
2023/12/15 03:04:24;;;;;;;3.20;3.00;;;;;;;5.54;100.00;97971.91;5070460;28;20305;-56
2023/12/15 03:06:51;;;;;;;3.50;3.20;;;;;;;5.58;100.00;97967.34;5071299;28;20216;-55
2023/12/15 03:09:17;;;;;;;3.43;3.23;;;;;;;5.55;100.00;97967.50;5070830;28;20210;-55
2023/12/15 03:11:44;;;;;;;3.83;3.47;;;;;;;5.64;100.00;97974.88;5069887;28;20656;-56
2023/12/15 03:14:12;;;;;;;3.40;3.10;;;;;;;5.59;100.00;97985.66;5070063;28;20715;-56
2023/12/15 03:16:38;;;;;;;3.87;3.47;;;;;;;5.53;100.00;97986.78;5071088;28;20203;-55
2023/12/15 03:19:05;;;;;;;2.97;2.77;;;;;;;5.55;100.00;97996.38;5071087;28;20289;-55
2023/12/15 03:21:32;;;;;;;3.40;3.20;;;;;;;5.51;100.00;97993.06;5070194;28;20627;-56
2023/12/15 03:23:58;;;;;;;3.77;3.40;;;;;;;5.70;100.00;98003.44;5071210;28;20226;-55
2023/12/15 03:26:26;;;;;;;3.50;3.20;;;;;;;5.58;100.00;97999.69;5071053;28;20309;-54
2023/12/15 03:28:52;;;;;;;3.97;3.30;;;;;;;5.57;100.00;98010.25;5070726;28;20221;-55
2023/12/15 03:31:20;;;;;;;3.70;3.40;;;;;;;5.52;100.00;98007.88;5070362;28;20293;-55
2023/12/15 03:33:47;;;;;;;3.60;3.30;;;;;;;5.56;100.00;98019.06;5070552;28;20671;-54
2023/12/15 03:36:13;;;;;;;3.30;3.00;;;;;;;5.57;100.00;98018.13;5070641;28;20213;-55
2023/12/15 03:38:40;;;;;;;3.60;3.30;;;;;;;5.53;100.00;98023.53;5071204;28;20221;-56
2023/12/15 03:41:06;;;;;;;3.60;3.30;;;;;;;5.46;100.00;98019.53;5069806;28;20271;-56
2023/12/15 03:43:33;;;;;;;3.37;3.13;;;;;;;5.47;100.00;98028.25;5070628;28;20281;-54
2023/12/15 03:46:01;;;;;;;3.27;2.97;;;;;;;5.50;100.00;98026.31;5071005;28;20309;-55
2023/12/15 03:48:29;;;;;;;3.30;3.00;;;;;;;5.56;100.00;98026.94;5070785;28;20259;-56
2023/12/15 03:50:55;;;;;;;4.10;3.63;;;;;;;5.56;100.00;98024.31;5070342;28;20206;-56
2023/12/15 03:53:22;;;;;;;3.53;3.23;;;;;;;5.47;100.00;98023.00;5070663;28;20212;-56
2023/12/15 03:55:48;;;;;;;3.70;3.40;;;;;;;5.47;100.00;98026.47;5070843;28;20209;-56
2023/12/15 03:58:15;;;;;;;4.77;3.70;;;;;;;5.50;100.00;98020.22;5079195;28;20193;-55
2023/12/15 04:00:41;;;;;;;3.70;3.40;;;;;;;5.53;100.00;98021.84;5096553;28;20201;-56
2023/12/15 04:03:08;;;;;;;3.67;3.43;;;;;;;5.59;100.00;98026.78;5078198;28;20313;-56
2023/12/15 04:05:36;;;;;;;3.67;3.37;;;;;;;5.64;100.00;98035.25;5072270;28;20226;-56
2023/12/15 04:08:03;;;;;;;3.47;3.23;;;;;;;5.71;100.00;98042.72;5071017;28;20294;-56
2023/12/15 04:10:29;;;;;;;3.87;3.57;;;;;;;5.66;100.00;98050.00;5070703;28;20711;-54
2023/12/15 04:12:57;;;;;;;3.70;3.40;;;;;;;5.68;100.00;98050.75;5070426;28;20260;-56
2023/12/15 04:15:24;;;;;;;3.37;3.17;;;;;;;5.68;100.00;98058.63;5070448;28;20190;-54
2023/12/15 04:17:50;;;;;;;3.83;3.47;;;;;;;5.65;100.00;98057.94;5070903;28;20209;-56
2023/12/15 04:20:17;;;;;;;3.40;3.10;;;;;;;5.62;100.00;98066.84;5070505;28;20204;-56
2023/12/15 04:22:45;;;;;;;3.63;3.37;;;;;;;5.62;100.00;98058.97;5071249;28;20203;-56
2023/12/15 04:25:11;;;;;;;3.90;3.60;;;;;;;5.71;100.00;98060.25;5074248;28;20556;-54
2023/12/15 04:27:38;;;;;;;4.00;3.57;;;;;;;5.61;100.00;98061.66;5073481;28;20195;-56
2023/12/15 04:30:06;;;;;;;4.03;3.73;;;;;;;5.57;100.00;98065.34;5073384;28;20210;-56
2023/12/15 04:32:32;;;;;;;4.00;3.70;;;;;;;5.51;100.00;98058.66;5074123;28;20205;-55
2023/12/15 04:34:59;;;;;;;3.73;3.40;;;;;;;5.53;100.00;98061.22;5074139;28;20301;-55
2023/12/15 04:37:25;;;;;;;4.40;4.00;;;;;;;5.42;100.00;98061.75;5073910;28;20211;-54
2023/12/15 04:39:53;;;;;;;3.50;3.30;;;;;;;5.47;100.00;98059.72;5073487;28;20268;-56
2023/12/15 04:42:19;;;;;;;3.80;3.50;;;;;;;5.43;100.00;98063.44;5073436;28;20222;-56
2023/12/15 04:44:46;;;;;;;3.50;3.30;;;;;;;5.40;100.00;98063.59;5073247;28;20507;-56
2023/12/15 04:47:12;;;;;;;4.93;3.63;;;;;;;5.42;100.00;98056.50;5073000;28;20693;-56
2023/12/15 04:49:39;;;;;;;5.00;3.50;;;;;;;5.37;100.00;98061.13;5073854;28;20202;-55
2023/12/15 04:52:06;;;;;;;3.93;3.60;;;;;;;5.38;100.00;98062.81;5073136;28;20199;-55
2023/12/15 04:54:32;;;;;;;5.23;3.83;;;;;;;5.41;100.00;98057.41;5074143;28;20509;-56
2023/12/15 04:57:01;;;;;;;4.17;3.77;;;;;;;5.38;100.00;98060.19;5073974;28;20210;-55
2023/12/15 04:59:27;;;;;;;6.90;3.93;;;;;;;5.37;100.00;98069.84;5073350;28;20207;-56
2023/12/15 05:01:54;;;;;;;3.90;3.60;;;;;;;5.41;100.00;98070.53;5073484;28;20220;-56
2023/12/15 05:04:20;;;;;;;4.00;3.60;;;;;;;5.39;100.00;98077.63;5074472;28;20255;-56
2023/12/15 05:06:46;;;;;;;3.70;3.40;;;;;;;5.37;100.00;98076.84;5080548;28;20230;-56
2023/12/15 05:09:13;;;;;;;4.00;3.50;;;;;;;5.42;100.00;98072.25;5080603;28;20228;-57
2023/12/15 05:11:40;;;;;;;5.20;3.77;;;;;;;5.45;100.00;98078.19;5089423;28;20206;-56
2023/12/15 05:14:08;;;;;;;4.10;3.80;;;;;;;5.45;100.00;98082.59;5074756;28;20202;-56
2023/12/15 05:19:15;;;;;;;4.10;3.80;;;;;;;5.48;100.00;98088.53;5079058;28;20289;-56
2023/12/15 05:21:42;;;;;;;3.90;3.60;;;;;;;5.50;100.00;98091.91;5074923;28;20202;-55
2023/12/15 05:24:08;;;;;;;4.40;3.60;;;;;;;5.54;100.00;98095.22;5072806;28;20564;-54
2023/12/15 05:26:35;;;;;;;4.53;3.33;;;;;;;5.49;100.00;98107.75;5072964;28;20238;-57
2023/12/15 05:29:01;;;;;;;4.67;4.27;;;;;;;5.49;100.00;98103.31;5073186;28;20293;-54
2023/12/15 05:31:29;;;;;;;4.83;4.43;;;;;;;5.49;100.00;98113.81;5073101;28;20411;-56
2023/12/15 05:33:56;;;;;;;4.70;4.30;;;;;;;5.48;100.00;98120.00;5071942;28;20210;-56
2023/12/15 05:36:22;;;;;;;4.23;3.93;;;;;;;5.48;100.00;98129.66;5072925;28;20225;-56
2023/12/15 05:38:49;;;;;;;4.40;3.90;;;;;;;5.49;100.00;98131.34;5072822;28;20217;-55
2023/12/15 05:41:15;;;;;;;3.60;3.40;;;;;;;5.48;100.00;98121.78;5072819;28;20229;-56
2023/12/15 05:43:44;;;;;;;4.07;3.77;;;;;;;5.47;100.00;98128.78;5072721;28;20199;-55
2023/12/15 05:46:10;;;;;;;4.03;3.73;;;;;;;5.49;100.00;98136.59;5072263;28;20308;-55
2023/12/15 05:48:38;;;;;;;4.10;3.80;;;;;;;5.53;100.00;98142.56;5072895;28;20248;-56
2023/12/15 05:51:07;;;;;;;4.20;3.90;;;;;;;5.53;100.00;98148.63;5072480;28;20213;-55
2023/12/15 05:53:34;;;;;;;4.07;3.53;;;;;;;5.49;100.00;98157.59;5072923;28;20619;-56
2023/12/15 05:56:00;;;;;;;4.60;4.20;;;;;;;5.49;100.00;98158.41;5073300;28;20191;-55
2023/12/15 05:58:27;;;;;;;4.83;4.40;;;;;;;5.49;100.00;98157.59;5073117;28;20652;-55
2023/12/15 06:00:53;;;;;;;4.30;3.90;;;;;;;5.50;100.00;98164.53;5071821;28;20217;-54
2023/12/15 06:03:19;;;;;;;4.53;4.00;;;;;;;5.55;100.00;98173.03;5071960;28;20234;-54
2023/12/15 06:05:47;;;;;;;4.00;3.60;;;;;;;5.56;100.00;98176.50;5072031;28;20229;-54
2023/12/15 06:08:13;;;;;;;4.37;4.07;;;;;;;5.55;100.00;98173.03;5071688;28;20203;-56
2023/12/15 06:10:40;;;;;;;3.93;3.60;;;;;;;5.52;100.00;98178.44;5072404;28;20194;-55
2023/12/15 06:13:07;;;;;;;4.30;3.70;;;;;;;5.47;100.00;98181.28;5072619;28;20686;-55
2023/12/15 06:15:33;;;;;;;5.00;3.50;;;;;;;5.45;100.00;98184.91;5086152;28;20206;-56
2023/12/15 06:18:00;;;;;;;3.73;3.43;;;;;;;5.48;100.00;98187.38;5093307;28;20193;-61
2023/12/15 06:20:27;;;;;;;4.00;3.60;;;;;;;5.46;100.00;98191.81;5083556;28;20228;-54
2023/12/15 06:22:56;;;;;;;5.00;4.10;;;;;;;5.46;100.00;98183.94;5073498;28;20195;-55
2023/12/15 06:25:23;;;;;;;4.70;3.50;;;;;;;5.43;100.00;98197.22;5073246;28;20198;-56
2023/12/15 06:27:49;;;;;;;4.10;3.73;;;;;;;5.46;100.00;98204.94;5072654;28;20239;-54
2023/12/15 06:30:16;;;;;;;3.97;3.60;;;;;;;5.41;100.00;98210.44;5073672;28;20283;-56
2023/12/15 06:32:42;;;;;;;4.00;3.70;;;;;;;5.41;100.00;98213.06;5072006;28;20207;-56
2023/12/15 06:35:09;;;;;;;4.20;3.90;;;;;;;5.42;100.00;98219.16;5071795;28;20259;-56
2023/12/15 06:37:35;;;;;;;4.33;4.03;;;;;;;5.42;100.00;98224.41;5071687;28;20294;-54
2023/12/15 06:40:04;;;;;;;5.80;5.30;;;;;;;5.35;100.00;98220.38;5072093;28;20198;-55
2023/12/15 06:42:30;;;;;;;4.37;3.93;;;;;;;5.37;100.00;98215.88;5071567;28;20299;-54
2023/12/15 06:44:58;;;;;;;4.03;3.63;;;;;;;5.31;100.00;98227.53;5071868;28;21297;-55
2023/12/15 06:47:24;;;;;;;4.83;4.43;;;;;;;5.30;100.00;98230.22;5070906;28;20214;-54
2023/12/15 06:49:51;;;;;;;5.47;4.97;;;;;;;5.30;100.00;98236.31;5072469;28;20221;-55
2023/12/15 06:52:16;;;;;;;6.37;4.27;;;;;;;5.33;100.00;98246.66;5071948;28;20198;-55
2023/12/15 06:54:43;;;;;;;4.60;4.17;;;;;;;5.33;100.00;98251.06;5074056;28;20209;-55
2023/12/15 06:57:10;;;;;;;4.90;3.97;;;;;;;5.29;100.00;98263.47;5071522;28;20211;-56
2023/12/15 06:59:37;;;;;;;4.43;4.03;;;;;;;5.24;100.00;98264.63;5071280;28;20218;-55
2023/12/15 07:02:04;;;;;;;4.30;3.90;;;;;;;5.27;100.00;98264.47;5071189;28;20292;-55
2023/12/15 07:04:30;;;;;;;4.80;3.90;;;;;;;5.30;100.00;98272.19;5070491;28;20217;-55
2023/12/15 07:06:56;;;;;;;4.10;3.80;;;;;;;5.26;100.00;98276.72;5070492;28;21041;-54
2023/12/15 07:09:23;;;;;;;4.60;4.20;;;;;;;5.31;100.00;98280.00;5071536;28;20210;-55
2023/12/15 07:11:49;;;;;;;4.47;4.07;;;;;;;5.30;100.00;98294.03;5071132;28;20210;-55
2023/12/15 07:14:17;;;;;;;5.27;4.77;;;;;;;5.34;100.00;98286.88;5070218;28;20566;-55
2023/12/15 07:16:43;;;;;;;5.00;4.60;;;;;;;5.32;100.00;98291.31;5070880;28;20217;-55
2023/12/15 07:19:10;;;;;;;4.47;4.13;;;;;;;5.33;100.00;98293.03;5071189;28;20264;-55
2023/12/15 07:21:38;;;;;;;4.97;4.47;;;;;;;5.32;100.00;98297.41;5070817;28;20205;-56
2023/12/15 07:24:06;;;;;;;4.77;4.37;;;;;;;5.37;100.00;98302.47;5071067;28;20217;-55
2023/12/15 07:26:32;;;;;;;4.47;4.07;;;;;;;5.34;100.00;98307.84;5070651;28;20218;-55
2023/12/15 07:28:59;;;;;;;5.20;4.70;;;;;;;5.35;100.00;98312.19;5070904;28;20206;-56
2023/12/15 07:31:27;;;;;;;4.43;4.13;;;;;;;5.47;100.00;98315.09;5070368;28;20202;-53
2023/12/15 07:33:53;;;;;;;4.07;3.77;;;;;;;5.42;100.00;98321.47;5070322;28;20232;-54
2023/12/15 07:36:20;;;;;;;5.20;4.70;;;;;;;5.47;100.00;98322.09;5070321;28;20210;-55
2023/12/15 07:38:47;;;;;;;5.33;4.20;;;;;;;5.45;100.00;98329.22;5070998;28;20198;-54
2023/12/15 07:41:13;;;;;;;5.03;4.40;;;;;;;5.52;100.00;98330.63;5070850;28;20213;-54
2023/12/15 07:43:40;;;;;;;4.80;4.40;;;;;;;5.57;100.00;98333.00;5070307;28;20199;-55
2023/12/15 07:46:16;;;;;;;4.83;4.47;;;;;;;5.53;100.00;98336.72;5070902;28;20206;-54
2023/12/15 07:48:44;;;;;;;4.10;3.80;;;;;;;5.55;100.00;98338.34;5070782;28;20202;-54
2023/12/15 07:51:16;;;;;;;4.30;4.00;;;;;;;5.48;100.00;98344.81;5070669;28;20533;-55
2023/12/15 07:53:42;;;;;;;4.70;4.23;;;;;;;5.46;100.00;98344.00;5070143;28;20199;-53
2023/12/15 07:56:09;;;;;;;4.67;4.27;;;;;;;5.47;100.00;98353.59;5071041;28;20210;-54
2023/12/15 07:58:36;;;;;;;4.37;3.93;;;;;;;5.46;100.00;98357.97;5074142;28;20209;-53
2023/12/15 08:01:02;;;;;;;4.77;4.27;;;;;;;5.48;100.00;98360.53;5075918;28;20213;-54
2023/12/15 08:03:29;;;;;;;5.17;4.67;;;;;;;5.49;100.00;98372.75;5074523;28;20249;-54
2023/12/15 08:05:57;;;;;;;4.20;3.80;;;;;;;5.51;100.00;98368.28;5076742;28;20214;-55
2023/12/15 08:08:23;;;;;;;5.93;4.07;;;;;;;5.53;100.00;98374.28;5077374;28;20230;-52
2023/12/15 08:10:49;;;;;;;4.53;4.10;;;;;;;5.55;100.00;98375.09;5076679;28;20275;-54
2023/12/15 08:13:16;;;;;;;4.80;4.40;;;;;;;5.58;100.00;98374.09;5074971;28;20203;-54
2023/12/15 08:15:42;;;;;;;6.27;4.80;;;;;;;5.60;100.00;98373.09;5076177;28;20217;-54
2023/12/15 08:18:09;;;;;;;7.27;4.67;;;;;;;5.62;100.00;98371.25;5075831;28;20218;-55
2023/12/15 08:20:36;;;;;;;5.70;5.00;;;;;;;5.60;100.00;98367.84;5075263;28;20257;-54
2023/12/15 08:23:04;;;;;;;5.17;4.73;;;;;;;5.66;100.00;98370.22;5076147;28;20214;-55
2023/12/15 08:25:31;;;;;;;5.27;4.87;;;;;;;5.69;100.00;98367.44;5075118;28;20216;-56
2023/12/15 08:27:57;;;;;;;5.10;4.70;;;;;;;5.71;100.00;98370.81;5075417;28;20230;-55
2023/12/15 08:30:24;;;;;;;5.33;4.73;;;;;;;5.76;100.00;98378.50;5082992;28;20201;-55
2023/12/15 08:32:50;;;;;;;5.17;4.67;;;;;;;5.83;100.00;98378.16;5098938;28;20186;-55
2023/12/15 08:35:17;;;;;;;4.70;4.30;;;;;;;5.82;100.00;98376.44;5085462;28;20561;-55
2023/12/15 08:37:43;;;;;;;4.57;4.17;;;;;;;5.88;100.00;98384.03;5074412;28;20281;-55
2023/12/15 08:40:12;;;;;;;4.60;4.20;;;;;;;5.90;100.00;98382.22;5074348;28;20206;-54
2023/12/15 08:42:38;;;;;;;4.80;4.40;;;;;;;5.95;100.00;98384.63;5072669;28;20202;-54
2023/12/15 08:45:06;;;;;;;6.03;4.90;;;;;;;5.99;100.00;98375.66;5074043;28;20643;-54
2023/12/15 08:47:33;;;;;;;5.33;4.93;;;;;;;5.99;100.00;98380.91;5073892;28;20230;-56
2023/12/15 08:49:59;;;;;;;5.80;5.30;;;;;;;6.00;100.00;98380.00;5073557;28;20207;-54
2023/12/15 08:52:26;;;;;;;5.63;5.10;;;;;;;5.99;100.00;98384.41;5074484;28;20202;-55
2023/12/15 08:54:52;;;;;;;6.80;5.23;;;;;;;6.00;100.00;98386.09;5074056;28;20247;-55
2023/12/15 08:57:20;;;;;;;7.03;5.67;;;;;;;6.04;100.00;98385.97;5074052;28;20202;-55
2023/12/15 08:59:47;;;;;;;6.27;5.67;;;;;;;6.06;100.00;98389.38;5073264;28;20289;-54
2023/12/15 09:02:13;;;;;;;5.40;4.90;;;;;;;6.12;100.00;98391.72;5073366;28;20238;-55
2023/12/15 09:04:40;;;;;;;5.33;4.93;;;;;;;6.17;100.00;98394.94;5073625;28;20207;-54
2023/12/15 09:07:07;;;;;;;5.30;4.80;;;;;;;6.23;100.00;98398.16;5073792;28;20222;-55
2023/12/15 09:09:34;;;;;;;5.60;5.10;;;;;;;6.22;100.00;98392.97;5072782;28;20207;-54
2023/12/15 09:12:00;;;;;;;6.03;5.37;;;;;;;6.19;100.00;98390.50;5074943;28;20203;-55
2023/12/15 09:14:28;;;;;;;6.17;5.07;;;;;;;6.16;100.00;98409.03;5073631;28;20207;-54
2023/12/15 09:16:55;;;;;;;6.23;5.60;;;;;;;6.11;100.00;98414.50;5072508;28;20756;-54
2023/12/15 09:19:22;;;;;;;6.10;5.50;;;;;;;6.17;100.00;98419.44;5073163;28;20251;-56
2023/12/15 09:21:48;;;;;;;7.93;5.73;;;;;;;6.11;100.00;98421.50;5073363;28;20203;-56
2023/12/15 09:24:15;;;;;;;6.73;6.13;;;;;;;6.17;100.00;98423.84;5073167;28;20202;-53
2023/12/15 09:26:42;;;;;;;5.60;5.10;;;;;;;6.12;100.00;98415.34;5073869;28;20213;-55
2023/12/15 09:29:09;;;;;;;6.60;5.40;;;;;;;6.16;100.00;98427.41;5073008;28;20255;-54
2023/12/15 09:31:37;;;;;;;6.20;5.70;;;;;;;6.19;100.00;98432.53;5073219;28;20195;-55
2023/12/15 09:34:03;;;;;;;6.13;5.63;;;;;;;6.27;100.00;98431.22;5074020;28;20202;-54
2023/12/15 09:36:30;;;;;;;6.03;5.53;;;;;;;6.26;100.00;98428.69;5073638;28;20533;-55
2023/12/15 09:38:56;;;;;;;6.97;5.20;;;;;;;6.37;100.00;98421.13;5075567;28;20206;-54
2023/12/15 09:41:25;;;;;;;6.73;5.87;;;;;;;6.47;100.00;98425.03;5074185;28;20218;-54
2023/12/15 09:43:53;;;;;;;6.43;5.83;;;;;;;6.55;100.00;98432.53;5074220;28;20336;-54
2023/12/15 09:46:21;;;;;;;7.90;6.07;;;;;;;6.56;100.00;98436.84;5072781;28;20202;-55
2023/12/15 09:48:50;;;;;;;7.83;5.60;;;;;;;6.61;100.00;98440.97;5074826;28;20226;-54
2023/12/15 09:51:19;;;;;;;5.77;5.27;;;;;;;6.69;100.00;98438.84;5073226;28;20202;-53
2023/12/15 09:53:48;;;;;;;6.33;5.37;;;;;;;6.76;100.00;98434.97;5072561;28;20207;-53
2023/12/15 09:56:15;;;;;;;6.73;5.63;;;;;;;6.82;100.00;98439.06;5072629;28;20307;-55
2023/12/15 09:58:42;;;;;;;6.67;5.30;;;;;;;6.98;100.00;98430.31;5071556;28;20206;-53
2023/12/15 10:01:09;;;;;;;7.67;5.97;;;;;;;7.07;100.00;98431.66;5072738;28;20210;-54
2023/12/15 10:03:35;;;;;;;6.93;5.50;;;;;;;7.16;100.00;98431.16;5072075;28;20287;-54
2023/12/15 10:06:03;;;;;;;6.73;5.87;;;;;;;7.20;100.00;98419.56;5076366;28;20202;-54
2023/12/15 10:08:39;;;;;;;5.80;5.20;;;;;;;7.39;100.00;98425.59;5072217;28;20226;-56
2023/12/15 10:11:07;;;;;;;5.93;5.43;;;;;;;7.63;100.00;98422.56;5072394;28;20202;-55
2023/12/15 10:13:33;;;;;;;6.30;5.70;;;;;;;7.90;100.00;98416.66;5071968;28;20198;-54
2023/12/15 10:16:00;;;;;;;6.37;5.77;;;;;;;8.15;100.00;98416.19;5072945;28;20237;-54
2023/12/15 10:18:26;;;;;;;5.70;5.10;;;;;;;8.68;100.00;98415.81;5073268;28;20222;-54
2023/12/15 10:20:55;;;;;;;5.40;5.00;;;;;;;8.74;100.00;98420.75;5072410;28;20263;-54
2023/12/15 10:23:28;;;;;;;5.83;5.10;;;;;;;8.52;100.00;98420.28;5072518;28;20237;-54
2023/12/15 10:25:55;;;;;;;5.60;5.10;;;;;;;8.56;100.00;98418.31;5072994;28;20205;-54
2023/12/15 10:28:22;;;;;;;7.47;5.00;;;;;;;8.93;100.00;98410.81;5072679;28;20245;-55
2023/12/15 10:30:50;;;;;;;6.00;5.50;;;;;;;9.10;97.59;98407.22;5072414;28;20203;-55
2023/12/15 10:33:19;;;;;;;4.90;4.50;;;;;;;9.25;97.63;98398.34;5071906;28;20206;-55
2023/12/15 10:35:47;;;;;;;5.80;5.20;;;;;;;9.14;97.25;98399.97;5072414;28;20202;-54
2023/12/15 10:38:16;;;;;;;5.07;4.67;;;;;;;9.38;97.27;98390.56;5072055;28;20310;-54
2023/12/15 10:40:43;;;;;;;5.87;4.10;;;;;;;9.65;89.50;98388.88;5073279;28;20210;-54
2023/12/15 10:43:10;;;;;;;3.90;3.60;;;;;;;9.53;96.54;98384.31;5071562;28;20221;-54
2023/12/15 10:45:37;;;;;;;4.60;4.20;;;;;;;9.55;91.49;98387.75;5072038;28;20337;-54
2023/12/15 10:48:04;;;;;;;2.93;2.73;;;;;;;9.82;89.11;98396.59;5071763;28;20218;-55
2023/12/15 10:50:31;;;;;;;2.90;2.70;;;;;;;9.93;87.15;98409.13;5071713;28;20678;-54
2023/12/15 10:52:58;;;;;;;3.20;2.97;;;;;;;9.82;92.21;98395.75;5071877;28;20226;-55
2023/12/15 10:55:25;;;;;;;3.40;3.00;;;;;;;9.52;87.71;98395.84;5077028;28;20213;-55
2023/12/15 10:57:53;;;;;;;3.00;2.80;;;;;;;9.37;89.14;98388.84;5089350;28;20202;-54
2023/12/15 11:00:19;;;;;;;4.47;3.00;;;;;;;9.08;89.07;98397.66;5094096;28;20199;-54
2023/12/15 11:02:46;;;;;;;3.47;3.27;;;;;;;9.10;93.70;98401.94;5091864;28;20226;-55
2023/12/15 11:05:13;;;;;;;4.07;3.77;;;;;;;8.99;94.21;98410.50;5092612;28;20186;-55
2023/12/15 11:07:41;;;;;;;3.93;3.53;;;;;;;9.03;95.84;98415.59;5088264;28;20226;-55
2023/12/15 11:10:09;;;;;;;4.03;3.63;;;;;;;9.09;96.55;98409.94;5079750;28;20217;-54
2023/12/15 11:12:37;;;;;;;4.40;4.00;;;;;;;8.99;98.51;98415.75;5079914;28;20230;-54
2023/12/15 11:15:07;;;;;;;4.03;3.73;;;;;;;9.05;98.20;98421.59;5087062;28;20199;-55
2023/12/15 11:17:34;;;;;;;4.37;4.07;;;;;;;8.98;98.94;98429.91;5087516;28;20257;-55
2023/12/15 11:20:06;;;;;;;4.13;3.83;;;;;;;8.87;99.35;98415.63;5086137;28;20272;-55
2023/12/15 11:22:45;;;;;;;3.90;3.60;;;;;;;8.88;97.70;98418.19;5087731;28;20202;-54
2023/12/15 11:25:18;;;;;;;3.73;3.43;;;;;;;8.60;99.20;98425.97;5088019;28;20206;-55
2023/12/15 11:28:08;;;;;;;4.23;3.90;;;;;;;8.52;100.00;98425.56;5085191;28;20679;-55
2023/12/15 11:30:37;;;;;;;3.93;3.63;;;;;;;8.45;99.91;98424.19;5088618;28;20198;-55
2023/12/15 11:33:41;;;;;;;5.07;4.20;;;;;;;8.40;97.82;98435.00;5086063;28;20198;-55
2023/12/15 11:36:12;;;;;;;5.60;4.20;;;;;;;8.34;99.83;98437.13;5088079;28;20217;-55